Coral Coast — WDF5120 — position and weather

sailwx.info

Track history (hours):
 
Tides and Currents Weather Stations Pressure Air Temp Water Temp Dewpoint Dewpoint Depression Visibility Wind Speed Wind Dir Waves Ship Positions

Coral Coast

Owner: Dann MarineTowing, LC., Chesapeake City, MD. More information available from US FCC via Universal Licensing System and Coast Guard Vessel Documentation Center.

Last reported at 2017-Oct-23 04:30 UTC. Time now 2017-Oct-23 04:50 UTC.
Position N 40°46' W 073°51'.

Length 70 m; draft 5.3 m.

Type: Tug. MMSI: 367459570.

Date/timePositionNaut miles runAvg speedWind from/ knotsBaromVisibWave heightAir tempDewpointWater temp
2017-Oct-23 04:30N 40°46' W 073°51'0 0.0
2017-Oct-23 04:00N 40°46' W 073°51'0 0.0
2017-Oct-23 03:31N 40°46' W 073°51'0 0.0
2017-Oct-23 03:00N 40°46' W 073°51'0 0.0
2017-Oct-23 02:30N 40°46' W 073°51'0 0.0
2017-Oct-23 02:00N 40°46' W 073°51'0 0.0
2017-Oct-23 01:31N 40°46' W 073°51'0 0.0
2017-Oct-23 01:00N 40°46' W 073°51'0 0.0
2017-Oct-23 00:30N 40°46' W 073°51'0 0.0
2017-Oct-23 00:00N 40°46' W 073°51'0 0.0
2017-Oct-22 23:30N 40°46' W 073°51'0 0.0
2017-Oct-22 22:59N 40°46' W 073°51'0 0.0
2017-Oct-22 22:30N 40°46' W 073°51'0 0.0
2017-Oct-22 22:00N 40°46' W 073°51'0 0.0
2017-Oct-22 21:29N 40°46' W 073°51'0 0.0
2017-Oct-22 21:00N 40°46' W 073°51'0 0.0
2017-Oct-22 20:30N 40°46' W 073°51'0 0.0
2017-Oct-22 19:59N 40°46' W 073°51'0 0.0
2017-Oct-22 19:30N 40°46' W 073°51'0 0.0
2017-Oct-22 19:00N 40°46' W 073°51'0 0.0
2017-Oct-22 18:30N 40°46' W 073°51'0 0.0
2017-Oct-22 18:00N 40°46' W 073°51'0 0.0
2017-Oct-22 17:30N 40°46' W 073°51'0 0.0
2017-Oct-22 17:00N 40°46' W 073°51'1 2.1
2017-Oct-22 16:30N 40°47' W 073°51'3 5.2
2017-Oct-22 16:00N 40°48' W 073°55'4 8.0
2017-Oct-22 15:30N 40°44' W 073°58'3 6.9
2017-Oct-22 15:00N 40°42' W 074°01'3 6.5
2017-Oct-22 14:30N 40°45' W 074°01'3 6.1
2017-Oct-22 14:00N 40°48' W 073°59'2 3.4
2017-Oct-22 13:30N 40°49' W 073°58'1 1.9
2017-Oct-22 13:00N 40°50' W 073°57'1 2.4
2017-Oct-22 12:30N 40°52' W 073°57'1 2.9
2017-Oct-22 12:00N 40°53' W 073°56'1 1.3
2017-Oct-22 11:30N 40°53' W 073°56'0 0.2
2017-Oct-22 11:00N 40°53' W 073°56'1 2.8
2017-Oct-22 10:30N 40°55' W 073°55'2 4.2
2017-Oct-22 10:00N 40°57' W 073°54'3 4.4
2017-Oct-22 09:24N 40°59' W 073°54'  
2017-Oct-18 06:54N 41°00' W 073°53'3 7.5
2017-Oct-18 06:30N 40°57' W 073°54'4 7.6
2017-Oct-18 06:00N 40°54' W 073°55'4 7.5
2017-Oct-18 05:30N 40°50' W 073°57'4 7.3
2017-Oct-18 05:00N 40°47' W 073°60'4 7.7
2017-Oct-18 04:30N 40°43' W 074°01'3 6.9
2017-Oct-18 04:00N 40°40' W 074°00'0 0.6
2017-Oct-18 03:30N 40°40' W 074°00'0 0.0
2017-Oct-18 03:00N 40°40' W 074°00'0 0.0
2017-Oct-18 02:30N 40°40' W 074°00'0 0.0
2017-Oct-18 02:00N 40°40' W 074°00'0 0.0
2017-Oct-18 01:30N 40°40' W 074°00'0 0.0
2017-Oct-18 01:00N 40°40' W 074°00'0 0.0
2017-Oct-18 00:30N 40°40' W 074°00'0 0.0
2017-Oct-18 00:00N 40°40' W 074°00'0 0.0
2017-Oct-17 23:30N 40°40' W 074°00'0 0.0
2017-Oct-17 23:00N 40°40' W 074°00'0 0.0
2017-Oct-17 22:30N 40°40' W 074°00'0 0.0
2017-Oct-17 22:00N 40°40' W 074°00'0 0.0
2017-Oct-17 21:30N 40°40' W 074°00'0 0.0
2017-Oct-17 21:00N 40°40' W 074°00'0 0.0
2017-Oct-17 20:30N 40°40' W 074°00'0 0.0
2017-Oct-17 20:00N 40°40' W 074°00'0 0.0
2017-Oct-17 19:30N 40°40' W 074°00'0 0.0
2017-Oct-17 19:00N 40°40' W 074°00'0 0.0
2017-Oct-17 18:30N 40°40' W 074°00'0 0.0
2017-Oct-17 18:00N 40°40' W 074°00'0 0.0
2017-Oct-17 17:30N 40°40' W 074°00'0 0.0
2017-Oct-17 17:00N 40°40' W 074°00'0 0.0
2017-Oct-17 16:30N 40°40' W 074°00'0 0.0
2017-Oct-17 16:00N 40°40' W 074°00'0 0.0
2017-Oct-17 15:30N 40°40' W 074°00'0 0.0
2017-Oct-17 15:00N 40°40' W 074°00'0 0.0
2017-Oct-17 14:30N 40°40' W 074°00'0 0.0
2017-Oct-17 14:00N 40°40' W 074°00'0 0.0
2017-Oct-17 13:30N 40°40' W 074°00'0 0.0
2017-Oct-17 13:00N 40°40' W 074°00'0 0.0
2017-Oct-17 12:30N 40°40' W 074°00'0 0.0
2017-Oct-17 12:00N 40°40' W 074°00'0 0.0
2017-Oct-17 11:30N 40°40' W 074°00'0 0.0
2017-Oct-17 11:00N 40°40' W 074°00'0 0.0
2017-Oct-17 10:30N 40°40' W 074°00'0 0.0
2017-Oct-17 10:00N 40°40' W 074°00'0 0.0
2017-Oct-17 09:30N 40°40' W 074°00'0 0.0
2017-Oct-17 09:00N 40°40' W 074°00'0 0.0
2017-Oct-17 08:30N 40°40' W 074°00'0 0.0
2017-Oct-17 08:00N 40°40' W 074°00'0 0.0
2017-Oct-17 07:30N 40°40' W 074°00'0 0.0
2017-Oct-17 07:00N 40°40' W 074°00'0 0.0
2017-Oct-17 06:30N 40°40' W 074°00'0 0.0
2017-Oct-17 06:00N 40°40' W 074°00'0 0.0
2017-Oct-17 05:30N 40°40' W 074°00'0 0.0
2017-Oct-17 05:00N 40°40' W 074°00'0 0.0
2017-Oct-17 04:30N 40°40' W 074°00'0 0.0
2017-Oct-17 04:00N 40°40' W 074°00'0 0.0
2017-Oct-17 03:30N 40°40' W 074°00'0 0.0
2017-Oct-17 03:00N 40°40' W 074°00'0 0.0
2017-Oct-17 02:30N 40°40' W 074°00'0 0.0
2017-Oct-17 02:00N 40°40' W 074°00'0 0.0
2017-Oct-17 01:30N 40°40' W 074°00'0 0.0
2017-Oct-17 01:00N 40°40' W 074°00'0 0.0
2017-Oct-17 00:30N 40°40' W 074°00'0 0.0
2017-Oct-17 00:00N 40°40' W 074°00'0 0.0
2017-Oct-16 23:30N 40°40' W 074°00'0 0.0
2017-Oct-16 23:00N 40°40' W 074°00'0 0.0
2017-Oct-16 22:30N 40°40' W 074°00'0 0.0
2017-Oct-16 22:00N 40°40' W 074°00'0 0.0
2017-Oct-16 21:30N 40°40' W 074°00'0 0.0
2017-Oct-16 21:00N 40°40' W 074°00'0 0.0
2017-Oct-16 20:30N 40°40' W 074°00'0 0.0
2017-Oct-16 20:00N 40°40' W 074°00'0 0.0
2017-Oct-16 19:30N 40°40' W 074°00'0 0.0
2017-Oct-16 19:00N 40°40' W 074°00'0 0.0
2017-Oct-16 18:30N 40°40' W 074°00'0 0.0
2017-Oct-16 18:00N 40°40' W 074°00'1 2.1
2017-Oct-16 17:30N 40°39' W 074°01'3 6.5
2017-Oct-16 17:00N 40°39' W 074°06'0 0.3
2017-Oct-16 16:30N 40°39' W 074°06'0 0.0
2017-Oct-16 16:00N 40°39' W 074°06'0 0.0
2017-Oct-16 15:30N 40°39' W 074°06'0 0.0
2017-Oct-16 15:00N 40°39' W 074°06'0 0.0
2017-Oct-16 14:00N 40°39' W 074°06'0 0.0
2017-Oct-16 13:30N 40°39' W 074°06'0 0.0
2017-Oct-16 13:00N 40°39' W 074°06'0 0.0
2017-Oct-16 12:30N 40°39' W 074°06'0 0.0
2017-Oct-16 12:00N 40°39' W 074°06'0 0.0
2017-Oct-16 11:30N 40°39' W 074°06'0 0.0
2017-Oct-16 11:00N 40°39' W 074°06'0 0.0
2017-Oct-16 10:30N 40°39' W 074°06'0 0.0
2017-Oct-16 10:00N 40°39' W 074°06'0 0.0
2017-Oct-16 09:30N 40°39' W 074°06'0 0.0
2017-Oct-16 09:00N 40°39' W 074°06'0 0.0
2017-Oct-16 08:30N 40°39' W 074°06'0 0.0
2017-Oct-16 08:00N 40°39' W 074°06'0 0.0
2017-Oct-16 07:30N 40°39' W 074°06'0 0.0
2017-Oct-16 07:00N 40°39' W 074°06'0 0.0
2017-Oct-16 06:30N 40°39' W 074°06'0 0.0
2017-Oct-16 06:00N 40°39' W 074°06'0 0.0
2017-Oct-16 05:30N 40°39' W 074°06'0 0.0
2017-Oct-16 05:00N 40°39' W 074°06'0 0.2
2017-Oct-16 04:30N 40°39' W 074°06'2 3.3
2017-Oct-16 04:01N 40°39' W 074°04'3 5.5
2017-Oct-16 03:30N 40°42' W 074°02'3 5.5
2017-Oct-16 03:00N 40°44' W 074°01'3 6.3
2017-Oct-16 02:30N 40°47' W 073°59'3 6.8
2017-Oct-16 02:00N 40°50' W 073°58'4 7.0
2017-Oct-16 01:30N 40°54' W 073°56'3 7.0
2017-Oct-16 01:00N 40°57' W 073°54'  
Track history (hours):
 
Tides and Currents Weather Stations Pressure Air Temp Water Temp Dewpoint Dewpoint Depression Visibility Wind Speed Wind Dir Waves Ship Positions

Coral Coast

Owner: Dann MarineTowing, LC., Chesapeake City, MD. More information available from US FCC via Universal Licensing System and Coast Guard Vessel Documentation Center.

Last reported at 2017-Oct-23 04:30 UTC. Time now 2017-Oct-23 04:51 UTC.
Position N 40°46' W 073°51'.

Length 70 m; draft 5.3 m.

Type: Tug. MMSI: 367459570.

Date/timePositionNaut miles runAvg speedWind from/ knotsBaromVisibWave heightAir tempDewpointWater temp
2017-Oct-23 04:30N 40°46' W 073°51'0 0.0
2017-Oct-23 04:00N 40°46' W 073°51'0 0.0
2017-Oct-23 03:31N 40°46' W 073°51'0 0.0
2017-Oct-23 03:00N 40°46' W 073°51'0 0.0
2017-Oct-23 02:30N 40°46' W 073°51'0 0.0
2017-Oct-23 02:00N 40°46' W 073°51'0 0.0
2017-Oct-23 01:31N 40°46' W 073°51'0 0.0
2017-Oct-23 01:00N 40°46' W 073°51'0 0.0
2017-Oct-23 00:30N 40°46' W 073°51'0 0.0
2017-Oct-23 00:00N 40°46' W 073°51'0 0.0
2017-Oct-22 23:30N 40°46' W 073°51'0 0.0
2017-Oct-22 22:59N 40°46' W 073°51'0 0.0
2017-Oct-22 22:30N 40°46' W 073°51'0 0.0
2017-Oct-22 22:00N 40°46' W 073°51'0 0.0
2017-Oct-22 21:29N 40°46' W 073°51'0 0.0
2017-Oct-22 21:00N 40°46' W 073°51'0 0.0
2017-Oct-22 20:30N 40°46' W 073°51'0 0.0
2017-Oct-22 19:59N 40°46' W 073°51'0 0.0
2017-Oct-22 19:30N 40°46' W 073°51'0 0.0
2017-Oct-22 19:00N 40°46' W 073°51'0 0.0
2017-Oct-22 18:30N 40°46' W 073°51'0 0.0
2017-Oct-22 18:00N 40°46' W 073°51'0 0.0
2017-Oct-22 17:30N 40°46' W 073°51'0 0.0
2017-Oct-22 17:00N 40°46' W 073°51'1 2.1
2017-Oct-22 16:30N 40°47' W 073°51'3 5.2
2017-Oct-22 16:00N 40°48' W 073°55'4 8.0
2017-Oct-22 15:30N 40°44' W 073°58'3 6.9
2017-Oct-22 15:00N 40°42' W 074°01'3 6.5
2017-Oct-22 14:30N 40°45' W 074°01'3 6.1
2017-Oct-22 14:00N 40°48' W 073°59'2 3.4
2017-Oct-22 13:30N 40°49' W 073°58'1 1.9
2017-Oct-22 13:00N 40°50' W 073°57'1 2.4
2017-Oct-22 12:30N 40°52' W 073°57'1 2.9
2017-Oct-22 12:00N 40°53' W 073°56'1 1.3
2017-Oct-22 11:30N 40°53' W 073°56'0 0.2
2017-Oct-22 11:00N 40°53' W 073°56'1 2.8
2017-Oct-22 10:30N 40°55' W 073°55'2 4.2
2017-Oct-22 10:00N 40°57' W 073°54'3 4.4
2017-Oct-22 09:24N 40°59' W 073°54'  
2017-Oct-18 06:54N 41°00' W 073°53'3 7.5
2017-Oct-18 06:30N 40°57' W 073°54'4 7.6
2017-Oct-18 06:00N 40°54' W 073°55'4 7.5
2017-Oct-18 05:30N 40°50' W 073°57'4 7.3
2017-Oct-18 05:00N 40°47' W 073°60'4 7.7
2017-Oct-18 04:30N 40°43' W 074°01'3 6.9
2017-Oct-18 04:00N 40°40' W 074°00'0 0.6
2017-Oct-18 03:30N 40°40' W 074°00'0 0.0
2017-Oct-18 03:00N 40°40' W 074°00'0 0.0
2017-Oct-18 02:30N 40°40' W 074°00'0 0.0
2017-Oct-18 02:00N 40°40' W 074°00'0 0.0
2017-Oct-18 01:30N 40°40' W 074°00'0 0.0
2017-Oct-18 01:00N 40°40' W 074°00'0 0.0
2017-Oct-18 00:30N 40°40' W 074°00'0 0.0
2017-Oct-18 00:00N 40°40' W 074°00'0 0.0
2017-Oct-17 23:30N 40°40' W 074°00'0 0.0
2017-Oct-17 23:00N 40°40' W 074°00'0 0.0
2017-Oct-17 22:30N 40°40' W 074°00'0 0.0
2017-Oct-17 22:00N 40°40' W 074°00'0 0.0
2017-Oct-17 21:30N 40°40' W 074°00'0 0.0
2017-Oct-17 21:00N 40°40' W 074°00'0 0.0
2017-Oct-17 20:30N 40°40' W 074°00'0 0.0
2017-Oct-17 20:00N 40°40' W 074°00'0 0.0
2017-Oct-17 19:30N 40°40' W 074°00'0 0.0
2017-Oct-17 19:00N 40°40' W 074°00'0 0.0
2017-Oct-17 18:30N 40°40' W 074°00'0 0.0
2017-Oct-17 18:00N 40°40' W 074°00'0 0.0
2017-Oct-17 17:30N 40°40' W 074°00'0 0.0
2017-Oct-17 17:00N 40°40' W 074°00'0 0.0
2017-Oct-17 16:30N 40°40' W 074°00'0 0.0
2017-Oct-17 16:00N 40°40' W 074°00'0 0.0
2017-Oct-17 15:30N 40°40' W 074°00'0 0.0
2017-Oct-17 15:00N 40°40' W 074°00'0 0.0
2017-Oct-17 14:30N 40°40' W 074°00'0 0.0
2017-Oct-17 14:00N 40°40' W 074°00'0 0.0
2017-Oct-17 13:30N 40°40' W 074°00'0 0.0
2017-Oct-17 13:00N 40°40' W 074°00'0 0.0
2017-Oct-17 12:30N 40°40' W 074°00'0 0.0
2017-Oct-17 12:00N 40°40' W 074°00'0 0.0
2017-Oct-17 11:30N 40°40' W 074°00'0 0.0
2017-Oct-17 11:00N 40°40' W 074°00'0 0.0
2017-Oct-17 10:30N 40°40' W 074°00'0 0.0
2017-Oct-17 10:00N 40°40' W 074°00'0 0.0
2017-Oct-17 09:30N 40°40' W 074°00'0 0.0
2017-Oct-17 09:00N 40°40' W 074°00'0 0.0
2017-Oct-17 08:30N 40°40' W 074°00'0 0.0
2017-Oct-17 08:00N 40°40' W 074°00'0 0.0
2017-Oct-17 07:30N 40°40' W 074°00'0 0.0
2017-Oct-17 07:00N 40°40' W 074°00'0 0.0
2017-Oct-17 06:30N 40°40' W 074°00'0 0.0
2017-Oct-17 06:00N 40°40' W 074°00'0 0.0
2017-Oct-17 05:30N 40°40' W 074°00'0 0.0
2017-Oct-17 05:00N 40°40' W 074°00'0 0.0
2017-Oct-17 04:30N 40°40' W 074°00'0 0.0
2017-Oct-17 04:00N 40°40' W 074°00'0 0.0
2017-Oct-17 03:30N 40°40' W 074°00'0 0.0
2017-Oct-17 03:00N 40°40' W 074°00'0 0.0
2017-Oct-17 02:30N 40°40' W 074°00'0 0.0
2017-Oct-17 02:00N 40°40' W 074°00'0 0.0
2017-Oct-17 01:30N 40°40' W 074°00'0 0.0
2017-Oct-17 01:00N 40°40' W 074°00'0 0.0
2017-Oct-17 00:30N 40°40' W 074°00'0 0.0
2017-Oct-17 00:00N 40°40' W 074°00'0 0.0
2017-Oct-16 23:30N 40°40' W 074°00'0 0.0
2017-Oct-16 23:00N 40°40' W 074°00'0 0.0
2017-Oct-16 22:30N 40°40' W 074°00'0 0.0
2017-Oct-16 22:00N 40°40' W 074°00'0 0.0
2017-Oct-16 21:30N 40°40' W 074°00'0 0.0
2017-Oct-16 21:00N 40°40' W 074°00'0 0.0
2017-Oct-16 20:30N 40°40' W 074°00'0 0.0
2017-Oct-16 20:00N 40°40' W 074°00'0 0.0
2017-Oct-16 19:30N 40°40' W 074°00'0 0.0
2017-Oct-16 19:00N 40°40' W 074°00'0 0.0
2017-Oct-16 18:30N 40°40' W 074°00'0 0.0
2017-Oct-16 18:00N 40°40' W 074°00'1 2.1
2017-Oct-16 17:30N 40°39' W 074°01'3 6.5
2017-Oct-16 17:00N 40°39' W 074°06'0 0.3
2017-Oct-16 16:30N 40°39' W 074°06'0 0.0
2017-Oct-16 16:00N 40°39' W 074°06'0 0.0
2017-Oct-16 15:30N 40°39' W 074°06'0 0.0
2017-Oct-16 15:00N 40°39' W 074°06'0 0.0
2017-Oct-16 14:00N 40°39' W 074°06'0 0.0
2017-Oct-16 13:30N 40°39' W 074°06'0 0.0
2017-Oct-16 13:00N 40°39' W 074°06'0 0.0
2017-Oct-16 12:30N 40°39' W 074°06'0 0.0
2017-Oct-16 12:00N 40°39' W 074°06'0 0.0
2017-Oct-16 11:30N 40°39' W 074°06'0 0.0
2017-Oct-16 11:00N 40°39' W 074°06'0 0.0
2017-Oct-16 10:30N 40°39' W 074°06'0 0.0
2017-Oct-16 10:00N 40°39' W 074°06'0 0.0
2017-Oct-16 09:30N 40°39' W 074°06'0 0.0
2017-Oct-16 09:00N 40°39' W 074°06'0 0.0
2017-Oct-16 08:30N 40°39' W 074°06'0 0.0
2017-Oct-16 08:00N 40°39' W 074°06'0 0.0
2017-Oct-16 07:30N 40°39' W 074°06'0 0.0
2017-Oct-16 07:00N 40°39' W 074°06'0 0.0
2017-Oct-16 06:30N 40°39' W 074°06'0 0.0
2017-Oct-16 06:00N 40°39' W 074°06'0 0.0
2017-Oct-16 05:30N 40°39' W 074°06'0 0.0
2017-Oct-16 05:00N 40°39' W 074°06'0 0.2
2017-Oct-16 04:30N 40°39' W 074°06'2 3.3
2017-Oct-16 04:01N 40°39' W 074°04'3 5.5
2017-Oct-16 03:30N 40°42' W 074°02'3 5.5
2017-Oct-16 03:00N 40°44' W 074°01'3 6.3
2017-Oct-16 02:30N 40°47' W 073°59'3 6.8
2017-Oct-16 02:00N 40°50' W 073°58'4 7.0
2017-Oct-16 01:30N 40°54' W 073°56'3 7.0
2017-Oct-16 01:00N 40°57' W 073°54'  

Dump ship's entire track history